sensor_id;sensor_type;location;lat;lon;timestamp;temperature;humidity
41547;DHT22;27271;45.412;10.852;2024-01-27T00:02:05;2.30;32.20
41547;DHT22;27271;45.412;10.852;2024-01-27T00:05:28;2.30;24.80
41547;DHT22;27271;45.412;10.852;2024-01-27T00:08:52;2.20;23.80
41547;DHT22;27271;45.412;10.852;2024-01-27T00:12:14;2.20;26.00
41547;DHT22;27271;45.412;10.852;2024-01-27T00:15:37;2.20;28.70
41547;DHT22;27271;45.412;10.852;2024-01-27T00:18:59;2.10;25.50
41547;DHT22;27271;45.412;10.852;2024-01-27T00:22:21;2.20;27.90
41547;DHT22;27271;45.412;10.852;2024-01-27T00:25:43;2.20;19.90
41547;DHT22;27271;45.412;10.852;2024-01-27T00:29:06;2.10;24.20
41547;DHT22;27271;45.412;10.852;2024-01-27T00:32:28;2.20;23.70
41547;DHT22;27271;45.412;10.852;2024-01-27T00:35:51;2.20;24.60
41547;DHT22;27271;45.412;10.852;2024-01-27T00:39:13;2.40;23.00
41547;DHT22;27271;45.412;10.852;2024-01-27T00:42:35;2.40;18.20
41547;DHT22;27271;45.412;10.852;2024-01-27T00:45:57;2.50;19.10
41547;DHT22;27271;45.412;10.852;2024-01-27T00:49:20;2.50;14.30
41547;DHT22;27271;45.412;10.852;2024-01-27T00:52:42;2.50;12.30
41547;DHT22;27271;45.412;10.852;2024-01-27T00:56:05;2.50;14.00
41547;DHT22;27271;45.412;10.852;2024-01-27T00:59:27;2.50;16.30
41547;DHT22;27271;45.412;10.852;2024-01-27T01:02:49;2.30;15.30
41547;DHT22;27271;45.412;10.852;2024-01-27T01:06:11;2.30;19.80
41547;DHT22;27271;45.412;10.852;2024-01-27T01:09:34;2.20;10.50
41547;DHT22;27271;45.412;10.852;2024-01-27T01:12:56;2.00;12.50
41547;DHT22;27271;45.412;10.852;2024-01-27T01:16:18;1.90;22.40
41547;DHT22;27271;45.412;10.852;2024-01-27T01:19:41;1.80;20.10
41547;DHT22;27271;45.412;10.852;2024-01-27T01:23:03;1.70;22.20
41547;DHT22;27271;45.412;10.852;2024-01-27T01:26:25;1.50;12.00
41547;DHT22;27271;45.412;10.852;2024-01-27T01:29:48;1.30;13.70
41547;DHT22;27271;45.412;10.852;2024-01-27T01:33:11;1.20;24.60
41547;DHT22;27271;45.412;10.852;2024-01-27T01:36:33;1.10;29.40
41547;DHT22;27271;45.412;10.852;2024-01-27T01:39:55;1.10;31.20
41547;DHT22;27271;45.412;10.852;2024-01-27T01:43:18;1.00;27.00
41547;DHT22;27271;45.412;10.852;2024-01-27T01:46:40;0.90;25.90
41547;DHT22;27271;45.412;10.852;2024-01-27T01:50:03;0.90;23.10
41547;DHT22;27271;45.412;10.852;2024-01-27T01:53:27;1.10;24.30
41547;DHT22;27271;45.412;10.852;2024-01-27T01:56:50;1.10;19.50
41547;DHT22;27271;45.412;10.852;2024-01-27T02:00:13;1.00;6.80
41547;DHT22;27271;45.412;10.852;2024-01-27T02:03:36;0.80;20.60
41547;DHT22;27271;45.412;10.852;2024-01-27T02:06:58;0.70;21.30
41547;DHT22;27271;45.412;10.852;2024-01-27T02:10:20;0.60;18.50
41547;DHT22;27271;45.412;10.852;2024-01-27T02:13:43;0.60;22.10
41547;DHT22;27271;45.412;10.852;2024-01-27T02:17:05;0.40;3.40
41547;DHT22;27271;45.412;10.852;2024-01-27T02:20:27;0.20;1.00
41547;DHT22;27271;45.412;10.852;2024-01-27T02:23:49;0.10;15.90
41547;DHT22;27271;45.412;10.852;2024-01-27T02:27:12;0.00;2.80
41547;DHT22;27271;45.412;10.852;2024-01-27T02:30:34;-0.10;18.90
41547;DHT22;27271;45.412;10.852;2024-01-27T02:33:56;0.10;40.80
41547;DHT22;27271;45.412;10.852;2024-01-27T02:37:19;0.10;21.20
41547;DHT22;27271;45.412;10.852;2024-01-27T02:40:41;0.00;26.30
41547;DHT22;27271;45.412;10.852;2024-01-27T02:44:04;0.00;25.20
41547;DHT22;27271;45.412;10.852;2024-01-27T02:47:26;0.00;26.90
41547;DHT22;27271;45.412;10.852;2024-01-27T02:50:48;-0.10;23.70
41547;DHT22;27271;45.412;10.852;2024-01-27T02:54:11;0.00;29.10
41547;DHT22;27271;45.412;10.852;2024-01-27T02:57:33;0.30;24.80
41547;DHT22;27271;45.412;10.852;2024-01-27T03:00:55;0.20;9.30
41547;DHT22;27271;45.412;10.852;2024-01-27T03:04:18;0.00;4.00
41547;DHT22;27271;45.412;10.852;2024-01-27T03:07:40;-0.10;15.20
41547;DHT22;27271;45.412;10.852;2024-01-27T03:11:03;0.00;20.20
41547;DHT22;27271;45.412;10.852;2024-01-27T03:14:25;0.00;17.00
41547;DHT22;27271;45.412;10.852;2024-01-27T03:17:48;0.00;10.70
41547;DHT22;27271;45.412;10.852;2024-01-27T03:21:11;0.00;15.50
41547;DHT22;27271;45.412;10.852;2024-01-27T03:24:33;0.10;17.80
41547;DHT22;27271;45.412;10.852;2024-01-27T03:27:55;0.00;1.00
41547;DHT22;27271;45.412;10.852;2024-01-27T03:31:17;-0.20;1.00
41547;DHT22;27271;45.412;10.852;2024-01-27T03:34:44;-0.30;1.00
41547;DHT22;27271;45.412;10.852;2024-01-27T03:38:07;-0.40;1.00
41547;DHT22;27271;45.412;10.852;2024-01-27T03:41:29;-0.40;26.10
41547;DHT22;27271;45.412;10.852;2024-01-27T03:44:52;-0.40;31.10
41547;DHT22;27271;45.412;10.852;2024-01-27T03:48:14;-0.40;26.70
41547;DHT22;27271;45.412;10.852;2024-01-27T03:51:36;-0.50;21.80
41547;DHT22;27271;45.412;10.852;2024-01-27T03:54:59;-0.60;17.20
41547;DHT22;27271;45.412;10.852;2024-01-27T03:58:21;-0.70;24.20
41547;DHT22;27271;45.412;10.852;2024-01-27T04:01:43;-0.60;28.70
41547;DHT22;27271;45.412;10.852;2024-01-27T04:05:06;-0.60;5.70
41547;DHT22;27271;45.412;10.852;2024-01-27T04:08:31;-0.60;11.30
41547;DHT22;27271;45.412;10.852;2024-01-27T04:11:53;-0.60;18.40
41547;DHT22;27271;45.412;10.852;2024-01-27T04:15:15;-0.60;18.00
41547;DHT22;27271;45.412;10.852;2024-01-27T04:18:39;-0.40;37.60
41547;DHT22;27271;45.412;10.852;2024-01-27T04:22:01;-0.60;3.20
41547;DHT22;27271;45.412;10.852;2024-01-27T04:25:24;-0.70;8.40
41547;DHT22;27271;45.412;10.852;2024-01-27T04:28:47;-0.80;2.10
41547;DHT22;27271;45.412;10.852;2024-01-27T04:32:09;-0.90;3.10
41547;DHT22;27271;45.412;10.852;2024-01-27T04:35:31;-1.00;4.70
41547;DHT22;27271;45.412;10.852;2024-01-27T04:38:53;-1.10;11.70
41547;DHT22;27271;45.412;10.852;2024-01-27T04:42:15;-1.10;27.40
41547;DHT22;27271;45.412;10.852;2024-01-27T04:45:38;-1.00;29.10
41547;DHT22;27271;45.412;10.852;2024-01-27T04:49:00;-1.00;29.40
41547;DHT22;27271;45.412;10.852;2024-01-27T04:52:23;-0.90;35.30
41547;DHT22;27271;45.412;10.852;2024-01-27T04:55:45;-0.70;44.00
41547;DHT22;27271;45.412;10.852;2024-01-27T04:59:08;-0.60;36.50
41547;DHT22;27271;45.412;10.852;2024-01-27T05:02:30;-0.50;34.90
41547;DHT22;27271;45.412;10.852;2024-01-27T05:05:52;-0.40;28.40
41547;DHT22;27271;45.412;10.852;2024-01-27T05:09:15;-0.30;27.40
41547;DHT22;27271;45.412;10.852;2024-01-27T05:12:39;-0.20;30.10
41547;DHT22;27271;45.412;10.852;2024-01-27T05:16:01;-0.20;35.60
41547;DHT22;27271;45.412;10.852;2024-01-27T05:19:24;-0.10;45.90
41547;DHT22;27271;45.412;10.852;2024-01-27T05:22:46;0.00;46.30
41547;DHT22;27271;45.412;10.852;2024-01-27T05:26:08;0.20;47.00
41547;DHT22;27271;45.412;10.852;2024-01-27T05:29:32;0.40;44.00
41547;DHT22;27271;45.412;10.852;2024-01-27T05:32:55;0.60;39.60
41547;DHT22;27271;45.412;10.852;2024-01-27T05:36:18;0.60;30.90
41547;DHT22;27271;45.412;10.852;2024-01-27T05:39:40;0.60;26.80
41547;DHT22;27271;45.412;10.852;2024-01-27T05:43:02;0.60;22.40
41547;DHT22;27271;45.412;10.852;2024-01-27T05:46:25;0.90;25.10
41547;DHT22;27271;45.412;10.852;2024-01-27T05:49:47;1.00;21.70
41547;DHT22;27271;45.412;10.852;2024-01-27T05:53:11;1.10;21.10
41547;DHT22;27271;45.412;10.852;2024-01-27T05:56:33;1.10;18.00
41547;DHT22;27271;45.412;10.852;2024-01-27T05:59:55;1.20;17.20
41547;DHT22;27271;45.412;10.852;2024-01-27T06:03:18;1.30;15.60
41547;DHT22;27271;45.412;10.852;2024-01-27T06:06:40;1.40;14.70
41547;DHT22;27271;45.412;10.852;2024-01-27T06:10:03;1.40;15.30
41547;DHT22;27271;45.412;10.852;2024-01-27T06:13:26;1.40;17.00
41547;DHT22;27271;45.412;10.852;2024-01-27T06:16:48;1.50;18.40
41547;DHT22;27271;45.412;10.852;2024-01-27T06:20:11;1.50;15.80
41547;DHT22;27271;45.412;10.852;2024-01-27T06:23:33;1.60;16.20
41547;DHT22;27271;45.412;10.852;2024-01-27T06:26:55;1.50;16.10
41547;DHT22;27271;45.412;10.852;2024-01-27T06:30:18;1.50;18.30
41547;DHT22;27271;45.412;10.852;2024-01-27T06:33:40;1.50;20.20
41547;DHT22;27271;45.412;10.852;2024-01-27T06:37:03;1.70;20.60
41547;DHT22;27271;45.412;10.852;2024-01-27T06:40:25;1.80;19.70
41547;DHT22;27271;45.412;10.852;2024-01-27T06:43:47;1.90;16.50
41547;DHT22;27271;45.412;10.852;2024-01-27T06:47:10;1.90;15.50
41547;DHT22;27271;45.412;10.852;2024-01-27T06:50:32;1.90;17.20
41547;DHT22;27271;45.412;10.852;2024-01-27T06:53:55;2.00;16.80
41547;DHT22;27271;45.412;10.852;2024-01-27T06:57:24;2.00;15.70
41547;DHT22;27271;45.412;10.852;2024-01-27T07:00:46;2.10;17.30
41547;DHT22;27271;45.412;10.852;2024-01-27T07:04:09;2.20;16.10
41547;DHT22;27271;45.412;10.852;2024-01-27T07:07:31;2.20;14.20
41547;DHT22;27271;45.412;10.852;2024-01-27T07:10:53;2.30;12.90
41547;DHT22;27271;45.412;10.852;2024-01-27T07:14:16;2.30;14.10
41547;DHT22;27271;45.412;10.852;2024-01-27T07:17:38;2.50;15.10
41547;DHT22;27271;45.412;10.852;2024-01-27T07:21:00;2.50;12.00
41547;DHT22;27271;45.412;10.852;2024-01-27T07:24:23;2.60;17.90
41547;DHT22;27271;45.412;10.852;2024-01-27T07:27:45;2.70;16.60
41547;DHT22;27271;45.412;10.852;2024-01-27T07:31:08;2.70;19.70
41547;DHT22;27271;45.412;10.852;2024-01-27T07:34:30;2.70;18.60
41547;DHT22;27271;45.412;10.852;2024-01-27T07:37:53;2.70;23.50
41547;DHT22;27271;45.412;10.852;2024-01-27T07:41:16;2.70;26.90
41547;DHT22;27271;45.412;10.852;2024-01-27T07:44:38;2.80;29.90
41547;DHT22;27271;45.412;10.852;2024-01-27T07:48:00;2.90;31.90
41547;DHT22;27271;45.412;10.852;2024-01-27T07:51:23;2.90;35.10
41547;DHT22;27271;45.412;10.852;2024-01-27T07:54:45;3.00;40.90
41547;DHT22;27271;45.412;10.852;2024-01-27T07:58:07;3.10;43.90
41547;DHT22;27271;45.412;10.852;2024-01-27T08:01:30;3.20;50.80
41547;DHT22;27271;45.412;10.852;2024-01-27T08:04:52;3.20;51.30
41547;DHT22;27271;45.412;10.852;2024-01-27T08:08:14;3.30;59.70
41547;DHT22;27271;45.412;10.852;2024-01-27T08:11:36;3.20;34.70
41547;DHT22;27271;45.412;10.852;2024-01-27T08:14:59;2.90;15.80
41547;DHT22;27271;45.412;10.852;2024-01-27T08:18:21;2.20;1.00
41547;DHT22;27271;45.412;10.852;2024-01-27T08:21:44;1.80;1.00
41547;DHT22;27271;45.412;10.852;2024-01-27T08:25:06;1.80;43.50
41547;DHT22;27271;45.412;10.852;2024-01-27T08:28:29;1.80;54.00
41547;DHT22;27271;45.412;10.852;2024-01-27T08:31:51;1.80;49.80
41547;DHT22;27271;45.412;10.852;2024-01-27T08:35:14;2.00;91.30
41547;DHT22;27271;45.412;10.852;2024-01-27T08:38:37;1.90;49.90
41547;DHT22;27271;45.412;10.852;2024-01-27T08:41:59;1.70;30.10
41547;DHT22;27271;45.412;10.852;2024-01-27T08:45:21;1.70;14.90
41547;DHT22;27271;45.412;10.852;2024-01-27T08:48:44;1.90;60.90
41547;DHT22;27271;45.412;10.852;2024-01-27T08:52:06;2.00;55.50
41547;DHT22;27271;45.412;10.852;2024-01-27T08:55:28;1.90;29.50
41547;DHT22;27271;45.412;10.852;2024-01-27T08:58:51;1.60;1.00
41547;DHT22;27271;45.412;10.852;2024-01-27T09:02:15;1.50;1.00
41547;DHT22;27271;45.412;10.852;2024-01-27T09:05:37;1.50;50.90
41547;DHT22;27271;45.412;10.852;2024-01-27T09:08:59;1.70;92.80
41547;DHT22;27271;45.412;10.852;2024-01-27T09:12:21;2.10;99.90
41547;DHT22;27271;45.412;10.852;2024-01-27T09:15:43;2.10;50.10
41547;DHT22;27271;45.412;10.852;2024-01-27T09:19:06;2.10;1.00
41547;DHT22;27271;45.412;10.852;2024-01-27T09:22:28;2.10;1.00
41547;DHT22;27271;45.412;10.852;2024-01-27T09:25:50;2.20;1.00
41547;DHT22;27271;45.412;10.852;2024-01-27T09:29:12;2.10;1.00
41547;DHT22;27271;45.412;10.852;2024-01-27T09:32:34;1.80;1.00
41547;DHT22;27271;45.412;10.852;2024-01-27T09:35:57;1.80;1.00
41547;DHT22;27271;45.412;10.852;2024-01-27T09:39:19;1.90;1.00
41547;DHT22;27271;45.412;10.852;2024-01-27T09:42:50;2.00;1.00
41547;DHT22;27271;45.412;10.852;2024-01-27T09:46:17;1.90;1.00
41547;DHT22;27271;45.412;10.852;2024-01-27T09:49:40;1.90;1.00
41547;DHT22;27271;45.412;10.852;2024-01-27T09:53:05;1.90;1.00
41547;DHT22;27271;45.412;10.852;2024-01-27T09:56:31;2.00;1.00
41547;DHT22;27271;45.412;10.852;2024-01-27T09:59:53;2.10;1.00
41547;DHT22;27271;45.412;10.852;2024-01-27T10:03:16;2.00;1.00
41547;DHT22;27271;45.412;10.852;2024-01-27T10:06:42;2.10;1.00
41547;DHT22;27271;45.412;10.852;2024-01-27T10:10:05;2.30;1.00
41547;DHT22;27271;45.412;10.852;2024-01-27T10:13:27;2.30;1.00
41547;DHT22;27271;45.412;10.852;2024-01-27T10:16:50;2.50;5.20
41547;DHT22;27271;45.412;10.852;2024-01-27T10:20:12;2.40;1.00
41547;DHT22;27271;45.412;10.852;2024-01-27T10:23:41;2.40;1.00
41547;DHT22;27271;45.412;10.852;2024-01-27T10:27:05;2.50;1.00
41547;DHT22;27271;45.412;10.852;2024-01-27T10:30:28;2.60;1.00
41547;DHT22;27271;45.412;10.852;2024-01-27T10:33:55;2.30;1.00
41547;DHT22;27271;45.412;10.852;2024-01-27T10:37:24;2.50;1.00
41547;DHT22;27271;45.412;10.852;2024-01-27T10:40:46;2.50;1.00
41547;DHT22;27271;45.412;10.852;2024-01-27T10:44:12;2.60;8.70
41547;DHT22;27271;45.412;10.852;2024-01-27T10:47:36;2.90;20.10
41547;DHT22;27271;45.412;10.852;2024-01-27T10:51:00;2.80;1.00
41547;DHT22;27271;45.412;10.852;2024-01-27T10:54:27;2.70;1.00
41547;DHT22;27271;45.412;10.852;2024-01-27T10:57:52;2.80;1.00
41547;DHT22;27271;45.412;10.852;2024-01-27T11:01:16;2.90;1.00
41547;DHT22;27271;45.412;10.852;2024-01-27T11:04:42;3.20;1.00
41547;DHT22;27271;45.412;10.852;2024-01-27T11:08:06;3.20;1.00
41547;DHT22;27271;45.412;10.852;2024-01-27T11:11:31;3.10;1.00
41547;DHT22;27271;45.412;10.852;2024-01-27T11:14:53;3.20;1.00
41547;DHT22;27271;45.412;10.852;2024-01-27T11:18:16;3.70;1.00
41547;DHT22;27271;45.412;10.852;2024-01-27T11:21:38;3.70;99.90
41547;DHT22;27271;45.412;10.852;2024-01-27T11:25:16;3.70;99.90
41547;DHT22;27271;45.412;10.852;2024-01-27T11:28:38;3.80;99.90
41547;DHT22;27271;45.412;10.852;2024-01-27T11:32:03;3.50;99.90
41547;DHT22;27271;45.412;10.852;2024-01-27T11:35:25;3.60;99.90
41547;DHT22;27271;45.412;10.852;2024-01-27T11:38:48;4.00;1.00
41547;DHT22;27271;45.412;10.852;2024-01-27T11:42:11;3.70;99.90
41547;DHT22;27271;45.412;10.852;2024-01-27T11:45:37;3.60;99.90
41547;DHT22;27271;45.412;10.852;2024-01-27T11:48:59;4.00;99.90
41547;DHT22;27271;45.412;10.852;2024-01-27T11:52:23;4.00;99.90
41547;DHT22;27271;45.412;10.852;2024-01-27T11:55:54;4.00;99.90
41547;DHT22;27271;45.412;10.852;2024-01-27T11:59:18;3.90;99.90
41547;DHT22;27271;45.412;10.852;2024-01-27T12:02:41;4.00;99.90
41547;DHT22;27271;45.412;10.852;2024-01-27T12:06:03;4.20;99.90
41547;DHT22;27271;45.412;10.852;2024-01-27T12:09:25;4.20;99.90
41547;DHT22;27271;45.412;10.852;2024-01-27T12:12:48;4.00;99.90
41547;DHT22;27271;45.412;10.852;2024-01-27T12:16:10;4.20;99.90
41547;DHT22;27271;45.412;10.852;2024-01-27T12:19:33;4.20;99.90
41547;DHT22;27271;45.412;10.852;2024-01-27T12:23:05;4.00;99.90
41547;DHT22;27271;45.412;10.852;2024-01-27T12:26:29;3.90;99.90
41547;DHT22;27271;45.412;10.852;2024-01-27T12:29:52;4.10;99.90
41547;DHT22;27271;45.412;10.852;2024-01-27T12:33:14;4.20;99.90
41547;DHT22;27271;45.412;10.852;2024-01-27T12:36:41;4.40;99.90
41547;DHT22;27271;45.412;10.852;2024-01-27T12:40:24;4.60;99.90
41547;DHT22;27271;45.412;10.852;2024-01-27T12:43:46;4.70;99.90
41547;DHT22;27271;45.412;10.852;2024-01-27T12:47:09;4.60;99.90
41547;DHT22;27271;45.412;10.852;2024-01-27T12:50:32;4.40;99.90
41547;DHT22;27271;45.412;10.852;2024-01-27T12:53:55;4.40;99.90
41547;DHT22;27271;45.412;10.852;2024-01-27T12:57:17;4.50;99.90
41547;DHT22;27271;45.412;10.852;2024-01-27T13:00:40;4.40;99.90
41547;DHT22;27271;45.412;10.852;2024-01-27T13:04:03;4.40;99.90
41547;DHT22;27271;45.412;10.852;2024-01-27T13:07:25;4.40;99.90
41547;DHT22;27271;45.412;10.852;2024-01-27T13:10:48;4.40;99.90
41547;DHT22;27271;45.412;10.852;2024-01-27T13:14:10;4.50;99.90
41547;DHT22;27271;45.412;10.852;2024-01-27T13:17:36;4.50;99.90
41547;DHT22;27271;45.412;10.852;2024-01-27T13:20:58;4.50;99.90
41547;DHT22;27271;45.412;10.852;2024-01-27T13:24:20;4.60;99.90
41547;DHT22;27271;45.412;10.852;2024-01-27T13:27:43;4.50;99.90
41547;DHT22;27271;45.412;10.852;2024-01-27T13:31:10;4.40;99.90
41547;DHT22;27271;45.412;10.852;2024-01-27T13:34:32;4.40;99.90
41547;DHT22;27271;45.412;10.852;2024-01-27T13:37:55;4.70;99.90
41547;DHT22;27271;45.412;10.852;2024-01-27T13:41:20;4.90;99.90
41547;DHT22;27271;45.412;10.852;2024-01-27T13:44:42;5.00;99.90
41547;DHT22;27271;45.412;10.852;2024-01-27T13:48:04;5.20;99.90
41547;DHT22;27271;45.412;10.852;2024-01-27T13:51:27;5.10;99.90
41547;DHT22;27271;45.412;10.852;2024-01-27T13:54:49;5.10;99.90
41547;DHT22;27271;45.412;10.852;2024-01-27T13:58:11;5.00;99.90
41547;DHT22;27271;45.412;10.852;2024-01-27T14:01:34;5.10;99.90
41547;DHT22;27271;45.412;10.852;2024-01-27T14:04:56;5.10;99.90
41547;DHT22;27271;45.412;10.852;2024-01-27T14:08:19;4.90;99.90
41547;DHT22;27271;45.412;10.852;2024-01-27T14:11:41;4.90;99.90
41547;DHT22;27271;45.412;10.852;2024-01-27T14:15:05;4.90;99.90
41547;DHT22;27271;45.412;10.852;2024-01-27T14:18:31;4.90;99.90
41547;DHT22;27271;45.412;10.852;2024-01-27T14:21:54;5.00;99.90
41547;DHT22;27271;45.412;10.852;2024-01-27T14:25:16;5.00;99.90
41547;DHT22;27271;45.412;10.852;2024-01-27T14:28:38;5.10;99.90
41547;DHT22;27271;45.412;10.852;2024-01-27T14:32:00;5.20;99.90
41547;DHT22;27271;45.412;10.852;2024-01-27T14:35:23;5.30;99.90
41547;DHT22;27271;45.412;10.852;2024-01-27T14:38:45;5.30;99.90
41547;DHT22;27271;45.412;10.852;2024-01-27T14:42:08;5.20;99.90
41547;DHT22;27271;45.412;10.852;2024-01-27T14:45:30;5.20;99.90
41547;DHT22;27271;45.412;10.852;2024-01-27T14:48:53;5.00;99.90
41547;DHT22;27271;45.412;10.852;2024-01-27T14:52:16;5.00;99.90
41547;DHT22;27271;45.412;10.852;2024-01-27T14:55:38;4.90;99.90
41547;DHT22;27271;45.412;10.852;2024-01-27T14:59:00;4.90;99.90
41547;DHT22;27271;45.412;10.852;2024-01-27T15:02:22;4.90;99.90
41547;DHT22;27271;45.412;10.852;2024-01-27T15:05:49;4.90;99.90
41547;DHT22;27271;45.412;10.852;2024-01-27T15:09:12;5.00;99.90
41547;DHT22;27271;45.412;10.852;2024-01-27T15:12:38;4.80;99.90
41547;DHT22;27271;45.412;10.852;2024-01-27T15:16:01;4.90;99.90
41547;DHT22;27271;45.412;10.852;2024-01-27T15:19:24;4.80;99.90
41547;DHT22;27271;45.412;10.852;2024-01-27T15:22:47;4.70;99.90
41547;DHT22;27271;45.412;10.852;2024-01-27T15:26:10;4.70;99.90
41547;DHT22;27271;45.412;10.852;2024-01-27T15:29:32;4.60;99.90
41547;DHT22;27271;45.412;10.852;2024-01-27T15:32:54;4.60;99.90
41547;DHT22;27271;45.412;10.852;2024-01-27T15:36:17;4.60;99.90
41547;DHT22;27271;45.412;10.852;2024-01-27T15:39:39;4.60;99.90
41547;DHT22;27271;45.412;10.852;2024-01-27T15:43:02;4.50;99.90
41547;DHT22;27271;45.412;10.852;2024-01-27T15:46:24;4.50;99.90
41547;DHT22;27271;45.412;10.852;2024-01-27T15:49:46;4.50;99.90
41547;DHT22;27271;45.412;10.852;2024-01-27T15:53:14;4.40;99.90
41547;DHT22;27271;45.412;10.852;2024-01-27T15:56:37;4.20;99.90
41547;DHT22;27271;45.412;10.852;2024-01-27T16:00:00;4.10;99.90
41547;DHT22;27271;45.412;10.852;2024-01-27T16:03:25;4.00;1.00
41547;DHT22;27271;45.412;10.852;2024-01-27T16:06:48;4.00;1.00
41547;DHT22;27271;45.412;10.852;2024-01-27T16:10:10;4.00;1.00
41547;DHT22;27271;45.412;10.852;2024-01-27T16:13:33;4.10;1.00
41547;DHT22;27271;45.412;10.852;2024-01-27T16:16:57;4.00;1.00
41547;DHT22;27271;45.412;10.852;2024-01-27T16:20:19;4.00;21.40
41547;DHT22;27271;45.412;10.852;2024-01-27T16:23:42;4.00;43.70
41547;DHT22;27271;45.412;10.852;2024-01-27T16:27:04;4.10;83.20
41547;DHT22;27271;45.412;10.852;2024-01-27T16:30:27;4.10;95.90
41547;DHT22;27271;45.412;10.852;2024-01-27T16:33:49;4.10;97.90
41547;DHT22;27271;45.412;10.852;2024-01-27T16:37:11;4.10;86.50
41547;DHT22;27271;45.412;10.852;2024-01-27T16:40:34;4.10;97.10
41547;DHT22;27271;45.412;10.852;2024-01-27T16:43:56;4.10;99.90
41547;DHT22;27271;45.412;10.852;2024-01-27T16:47:18;4.10;99.80
41547;DHT22;27271;45.412;10.852;2024-01-27T16:50:41;4.20;96.70
41547;DHT22;27271;45.412;10.852;2024-01-27T16:54:06;4.10;50.00
41547;DHT22;27271;45.412;10.852;2024-01-27T16:57:28;4.10;92.50
41547;DHT22;27271;45.412;10.852;2024-01-27T17:00:53;4.20;99.90
41547;DHT22;27271;45.412;10.852;2024-01-27T17:04:15;4.10;28.10
41547;DHT22;27271;45.412;10.852;2024-01-27T17:07:38;4.00;52.00
41547;DHT22;27271;45.412;10.852;2024-01-27T17:11:00;3.90;99.90
41547;DHT22;27271;45.412;10.852;2024-01-27T17:14:23;4.00;99.90
41547;DHT22;27271;45.412;10.852;2024-01-27T17:17:45;3.90;89.10
41547;DHT22;27271;45.412;10.852;2024-01-27T17:21:08;3.80;99.90
41547;DHT22;27271;45.412;10.852;2024-01-27T17:24:30;3.80;99.90
41547;DHT22;27271;45.412;10.852;2024-01-27T17:27:52;3.70;92.90
41547;DHT22;27271;45.412;10.852;2024-01-27T17:31:14;3.50;27.20
41547;DHT22;27271;45.412;10.852;2024-01-27T17:34:36;3.40;17.40
41547;DHT22;27271;45.412;10.852;2024-01-27T17:37:59;3.30;91.60
41547;DHT22;27271;45.412;10.852;2024-01-27T17:41:21;3.20;81.20
41547;DHT22;27271;45.412;10.852;2024-01-27T17:44:43;3.10;96.50
41547;DHT22;27271;45.412;10.852;2024-01-27T17:48:06;2.90;93.80
41547;DHT22;27271;45.412;10.852;2024-01-27T17:51:29;2.90;99.90
41547;DHT22;27271;45.412;10.852;2024-01-27T17:54:51;2.90;99.90
41547;DHT22;27271;45.412;10.852;2024-01-27T17:58:13;2.80;88.80
41547;DHT22;27271;45.412;10.852;2024-01-27T18:01:37;2.70;99.10
41547;DHT22;27271;45.412;10.852;2024-01-27T18:04:59;2.70;97.30
41547;DHT22;27271;45.412;10.852;2024-01-27T18:08:21;2.70;99.90
41547;DHT22;27271;45.412;10.852;2024-01-27T18:11:44;2.70;99.90
41547;DHT22;27271;45.412;10.852;2024-01-27T18:15:06;2.70;96.10
41547;DHT22;27271;45.412;10.852;2024-01-27T18:18:28;2.70;97.60
41547;DHT22;27271;45.412;10.852;2024-01-27T18:21:51;2.70;87.50
41547;DHT22;27271;45.412;10.852;2024-01-27T18:25:13;2.70;99.50
41547;DHT22;27271;45.412;10.852;2024-01-27T18:28:35;2.70;96.10
41547;DHT22;27271;45.412;10.852;2024-01-27T18:31:57;2.70;95.80
41547;DHT22;27271;45.412;10.852;2024-01-27T18:35:21;2.70;95.10
41547;DHT22;27271;45.412;10.852;2024-01-27T18:38:44;2.80;98.30
41547;DHT22;27271;45.412;10.852;2024-01-27T18:42:09;2.80;98.30
41547;DHT22;27271;45.412;10.852;2024-01-27T18:45:31;2.80;92.80
41547;DHT22;27271;45.412;10.852;2024-01-27T18:48:54;2.80;96.40
41547;DHT22;27271;45.412;10.852;2024-01-27T18:52:16;2.80;99.30
41547;DHT22;27271;45.412;10.852;2024-01-27T18:55:39;2.90;92.70
41547;DHT22;27271;45.412;10.852;2024-01-27T18:59:02;2.80;94.50
41547;DHT22;27271;45.412;10.852;2024-01-27T19:02:24;2.80;95.70
41547;DHT22;27271;45.412;10.852;2024-01-27T19:05:46;2.80;98.30
41547;DHT22;27271;45.412;10.852;2024-01-27T19:09:08;2.90;94.10
41547;DHT22;27271;45.412;10.852;2024-01-27T19:12:30;2.80;72.80
41547;DHT22;27271;45.412;10.852;2024-01-27T19:15:53;2.70;87.70
41547;DHT22;27271;45.412;10.852;2024-01-27T19:19:17;2.70;93.20
41547;DHT22;27271;45.412;10.852;2024-01-27T19:22:41;2.70;98.80
41547;DHT22;27271;45.412;10.852;2024-01-27T19:26:03;2.80;96.10
41547;DHT22;27271;45.412;10.852;2024-01-27T19:29:25;2.70;90.40
41547;DHT22;27271;45.412;10.852;2024-01-27T19:32:48;2.70;65.40
41547;DHT22;27271;45.412;10.852;2024-01-27T19:36:11;2.60;94.10
41547;DHT22;27271;45.412;10.852;2024-01-27T19:39:33;2.70;95.50
41547;DHT22;27271;45.412;10.852;2024-01-27T19:42:56;2.70;94.70
41547;DHT22;27271;45.412;10.852;2024-01-27T19:46:18;2.70;96.40
41547;DHT22;27271;45.412;10.852;2024-01-27T19:49:40;2.80;98.40
41547;DHT22;27271;45.412;10.852;2024-01-27T19:53:06;2.90;93.90
41547;DHT22;27271;45.412;10.852;2024-01-27T19:56:35;2.90;91.30
41547;DHT22;27271;45.412;10.852;2024-01-27T19:59:57;3.00;93.50
41547;DHT22;27271;45.412;10.852;2024-01-27T20:03:19;2.90;86.00
41547;DHT22;27271;45.412;10.852;2024-01-27T20:06:44;2.90;92.10
41547;DHT22;27271;45.412;10.852;2024-01-27T20:10:07;2.90;93.20
41547;DHT22;27271;45.412;10.852;2024-01-27T20:13:30;3.00;95.40
41547;DHT22;27271;45.412;10.852;2024-01-27T20:16:54;3.00;92.40
41547;DHT22;27271;45.412;10.852;2024-01-27T20:20:16;3.10;91.70
41547;DHT22;27271;45.412;10.852;2024-01-27T20:23:39;3.10;92.10
41547;DHT22;27271;45.412;10.852;2024-01-27T20:27:02;3.20;86.50
41547;DHT22;27271;45.412;10.852;2024-01-27T20:30:25;3.10;83.10
41547;DHT22;27271;45.412;10.852;2024-01-27T20:33:47;3.10;87.90
41547;DHT22;27271;45.412;10.852;2024-01-27T20:37:11;3.10;95.20
41547;DHT22;27271;45.412;10.852;2024-01-27T20:40:33;3.00;91.00
41547;DHT22;27271;45.412;10.852;2024-01-27T20:43:56;3.10;91.40
41547;DHT22;27271;45.412;10.852;2024-01-27T20:47:18;3.00;90.40
41547;DHT22;27271;45.412;10.852;2024-01-27T20:50:40;3.00;92.10
41547;DHT22;27271;45.412;10.852;2024-01-27T20:54:03;3.00;97.60
41547;DHT22;27271;45.412;10.852;2024-01-27T20:57:26;2.90;92.30
41547;DHT22;27271;45.412;10.852;2024-01-27T21:00:49;2.90;99.90
41547;DHT22;27271;45.412;10.852;2024-01-27T21:04:11;2.90;97.50
41547;DHT22;27271;45.412;10.852;2024-01-27T21:07:34;2.90;98.90
41547;DHT22;27271;45.412;10.852;2024-01-27T21:10:57;2.90;94.90
41547;DHT22;27271;45.412;10.852;2024-01-27T21:14:19;2.90;99.40
41547;DHT22;27271;45.412;10.852;2024-01-27T21:17:42;3.00;99.90
41547;DHT22;27271;45.412;10.852;2024-01-27T21:21:04;3.00;98.60
41547;DHT22;27271;45.412;10.852;2024-01-27T21:24:27;3.00;98.40